sensor_id;sensor_type;location;lat;lon;timestamp;pressure;altitude;pressure_sealevel;temperature;humidity
5350;BME280;2697;42.144;24.794;2023-05-27T00:00:11;129011.78;;;17.73;100.00
5350;BME280;2697;42.144;24.794;2023-05-27T00:02:38;138453.19;;;17.58;100.00
5350;BME280;2697;42.144;24.794;2023-05-27T00:05:04;124065.91;;;17.53;100.00
5350;BME280;2697;42.144;24.794;2023-05-27T00:07:30;144423.44;;;17.55;100.00
5350;BME280;2697;42.144;24.794;2023-05-27T00:09:56;155342.22;;;17.62;100.00
5350;BME280;2697;42.144;24.794;2023-05-27T00:12:22;157105.66;;;17.56;100.00
5350;BME280;2697;42.144;24.794;2023-05-27T00:14:47;157083.16;;;17.47;100.00
5350;BME280;2697;42.144;24.794;2023-05-27T00:17:13;157124.22;;;17.63;100.00
5350;BME280;2697;42.144;24.794;2023-05-27T00:19:39;157142.81;;;17.70;100.00
5350;BME280;2697;42.144;24.794;2023-05-27T00:22:05;157116.28;;;17.60;100.00
5350;BME280;2697;42.144;24.794;2023-05-27T00:24:30;157134.78;;;17.67;100.00
5350;BME280;2697;42.144;24.794;2023-05-27T00:26:56;157114.97;;;17.59;100.00
5350;BME280;2697;42.144;24.794;2023-05-27T00:29:21;157097.75;;;17.53;100.00
5350;BME280;2697;42.144;24.794;2023-05-27T00:31:47;157113.63;;;17.59;100.00
5350;BME280;2697;42.144;24.794;2023-05-27T00:34:12;157108.31;;;17.57;100.00
5350;BME280;2697;42.144;24.794;2023-05-27T00:36:38;157100.38;;;17.54;100.00
5350;BME280;2697;42.144;24.794;2023-05-27T00:39:03;157124.22;;;17.63;100.00
5350;BME280;2697;42.144;24.794;2023-05-27T00:41:30;157117.59;;;17.60;100.00
5350;BME280;2697;42.144;24.794;2023-05-27T00:43:56;157128.16;;;17.64;100.00
5350;BME280;2697;42.144;24.794;2023-05-27T00:46:22;157103.03;;;17.55;100.00
5350;BME280;2697;42.144;24.794;2023-05-27T00:48:47;157109.63;;;17.57;100.00
5350;BME280;2697;42.144;24.794;2023-05-27T00:51:14;157129.50;;;17.65;100.00
5350;BME280;2697;42.144;24.794;2023-05-27T00:53:41;157153.38;;;17.74;100.00
5350;BME280;2697;42.144;24.794;2023-05-27T00:56:07;157140.13;;;17.69;100.00
5350;BME280;2697;42.144;24.794;2023-05-27T00:58:34;157100.38;;;17.54;100.00
5350;BME280;2697;42.144;24.794;2023-05-27T01:01:01;157142.81;;;17.70;100.00
5350;BME280;2697;42.144;24.794;2023-05-27T01:03:26;157126.84;;;17.64;100.00
5350;BME280;2697;42.144;24.794;2023-05-27T01:05:59;157144.13;;;17.71;100.00
5350;BME280;2697;42.144;24.794;2023-05-27T01:11:09;157167.97;;;17.80;100.00
5350;BME280;2697;42.144;24.794;2023-05-27T01:13:41;157187.84;;;17.87;100.00
5350;BME280;2697;42.144;24.794;2023-05-27T01:16:12;157219.59;;;18.00;100.00
5350;BME280;2697;42.144;24.794;2023-05-27T01:18:40;157220.91;;;18.00;100.00
5350;BME280;2697;42.144;24.794;2023-05-27T01:21:11;157199.72;;;17.92;100.00
5350;BME280;2697;42.144;24.794;2023-05-27T01:23:38;157194.44;;;17.90;100.00
5350;BME280;2697;42.144;24.794;2023-05-27T01:26:04;157199.72;;;17.92;100.00
5350;BME280;2697;42.144;24.794;2023-05-27T01:28:30;157193.13;;;17.89;100.00
5350;BME280;2697;42.144;24.794;2023-05-27T01:31:21;157238.13;;;18.07;100.00
5350;BME280;2697;42.144;24.794;2023-05-27T01:33:52;157272.56;;;18.20;100.00
5350;BME280;2697;42.144;24.794;2023-05-27T01:36:22;157267.28;;;18.18;100.00
5350;BME280;2697;42.144;24.794;2023-05-27T01:38:51;157243.44;;;18.09;100.00
5350;BME280;2697;42.144;24.794;2023-05-27T01:41:17;157232.81;;;18.05;100.00
5350;BME280;2697;42.144;24.794;2023-05-27T01:43:44;157285.81;;;18.25;100.00
5350;BME280;2697;42.144;24.794;2023-05-27T01:46:09;157275.19;;;18.21;100.00
5350;BME280;2697;42.144;24.794;2023-05-27T01:48:35;157281.81;;;18.23;100.00
5350;BME280;2697;42.144;24.794;2023-05-27T01:51:00;157267.28;;;18.18;100.00
5350;BME280;2697;42.144;24.794;2023-05-27T01:53:26;157261.97;;;18.16;100.00
5350;BME280;2697;42.144;24.794;2023-05-27T01:55:51;157251.34;;;18.12;100.00
5350;BME280;2697;42.144;24.794;2023-05-27T01:58:16;157288.47;;;18.26;100.00
5350;BME280;2697;42.144;24.794;2023-05-27T02:00:42;157320.25;;;18.38;100.00
5350;BME280;2697;42.144;24.794;2023-05-27T02:03:07;157254.00;;;18.13;100.00
5350;BME280;2697;42.144;24.794;2023-05-27T02:05:33;157296.41;;;18.29;100.00
5350;BME280;2697;42.144;24.794;2023-05-27T02:07:58;157296.41;;;18.29;100.00
5350;BME280;2697;42.144;24.794;2023-05-27T02:10:23;157292.44;;;18.28;100.00
5350;BME280;2697;42.144;24.794;2023-05-27T02:12:49;157284.50;;;18.25;100.00
5350;BME280;2697;42.144;24.794;2023-05-27T02:15:14;157305.66;;;18.33;100.00
5350;BME280;2697;42.144;24.794;2023-05-27T02:17:40;157293.75;;;18.28;100.00
5350;BME280;2697;42.144;24.794;2023-05-27T02:20:06;157306.97;;;18.33;100.00
5350;BME280;2697;42.144;24.794;2023-05-27T02:22:31;157304.31;;;18.32;100.00
5350;BME280;2697;42.144;24.794;2023-05-27T02:24:57;157285.81;;;18.25;100.00
5350;BME280;2697;42.144;24.794;2023-05-27T02:27:22;157305.66;;;18.33;100.00
5350;BME280;2697;42.144;24.794;2023-05-27T02:29:47;157293.75;;;18.28;100.00
5350;BME280;2697;42.144;24.794;2023-05-27T02:32:13;157288.47;;;18.26;100.00
5350;BME280;2697;42.144;24.794;2023-05-27T02:34:38;157259.34;;;18.15;100.00
5350;BME280;2697;42.144;24.794;2023-05-27T02:37:04;157296.41;;;18.29;100.00
5350;BME280;2697;42.144;24.794;2023-05-27T02:39:30;157296.41;;;18.29;100.00
5350;BME280;2697;42.144;24.794;2023-05-27T02:41:55;157295.06;;;18.29;100.00
5350;BME280;2697;42.144;24.794;2023-05-27T02:44:21;157328.16;;;18.41;100.00
5350;BME280;2697;42.144;24.794;2023-05-27T02:46:46;157346.72;;;18.48;100.00
5350;BME280;2697;42.144;24.794;2023-05-27T02:49:11;157306.97;;;18.33;100.00
5350;BME280;2697;42.144;24.794;2023-05-27T02:51:37;157328.16;;;18.41;100.00
5350;BME280;2697;42.144;24.794;2023-05-27T02:54:02;157330.81;;;18.42;100.00
5350;BME280;2697;42.144;24.794;2023-05-27T02:56:28;157341.44;;;18.46;100.00
5350;BME280;2697;42.144;24.794;2023-05-27T02:58:53;157370.56;;;18.58;100.00
5350;BME280;2697;42.144;24.794;2023-05-27T03:01:18;157348.06;;;18.49;100.00
5350;BME280;2697;42.144;24.794;2023-05-27T03:03:44;157346.72;;;18.48;100.00
5350;BME280;2697;42.144;24.794;2023-05-27T03:06:09;157336.16;;;18.44;100.00
5350;BME280;2697;42.144;24.794;2023-05-27T03:08:35;157352.00;;;18.50;100.00
5350;BME280;2697;42.144;24.794;2023-05-27T03:11:01;157358.69;;;18.53;100.00
5350;BME280;2697;42.144;24.794;2023-05-27T03:13:26;157333.50;;;18.43;100.00
5350;BME280;2697;42.144;24.794;2023-05-27T03:15:52;157354.66;;;18.51;100.00
5350;BME280;2697;42.144;24.794;2023-05-27T03:18:19;157349.38;;;18.49;100.00
5350;BME280;2697;42.144;24.794;2023-05-27T03:20:45;157369.25;;;18.57;100.00
5350;BME280;2697;42.144;24.794;2023-05-27T03:23:10;157375.84;;;18.60;100.00
5350;BME280;2697;42.144;24.794;2023-05-27T03:25:35;157379.81;;;18.61;100.00
5350;BME280;2697;42.144;24.794;2023-05-27T03:28:01;157402.41;;;18.70;100.00
5350;BME280;2697;42.144;24.794;2023-05-27T03:30:26;157379.81;;;18.61;100.00
5350;BME280;2697;42.144;24.794;2023-05-27T03:32:52;157410.38;;;18.73;100.00
5350;BME280;2697;42.144;24.794;2023-05-27T03:35:17;157407.75;;;18.72;100.00
5350;BME280;2697;42.144;24.794;2023-05-27T03:37:43;157418.31;;;18.76;100.00
5350;BME280;2697;42.144;24.794;2023-05-27T03:40:08;157434.25;;;18.82;100.00
5350;BME280;2697;42.144;24.794;2023-05-27T03:42:34;157451.44;;;18.89;100.00
5350;BME280;2697;42.144;24.794;2023-05-27T03:45:00;157431.59;;;18.81;100.00
5350;BME280;2697;42.144;24.794;2023-05-27T03:47:26;157451.44;;;18.89;100.00
5350;BME280;2697;42.144;24.794;2023-05-27T03:49:51;157505.81;;;19.10;100.00
5350;BME280;2697;42.144;24.794;2023-05-27T03:52:16;157513.72;;;19.13;100.00
5350;BME280;2697;42.144;24.794;2023-05-27T03:54:42;157532.28;;;19.20;100.00
5350;BME280;2697;42.144;24.794;2023-05-27T03:57:08;157545.53;;;19.25;100.00
5350;BME280;2697;42.144;24.794;2023-05-27T03:59:34;157513.72;;;19.13;100.00
5350;BME280;2697;42.144;24.794;2023-05-27T04:01:59;157467.34;;;18.95;100.00
5350;BME280;2697;42.144;24.794;2023-05-27T04:04:25;157541.56;;;19.23;100.00
5350;BME280;2697;42.144;24.794;2023-05-27T04:06:50;157546.84;;;19.25;100.00
5350;BME280;2697;42.144;24.794;2023-05-27T04:09:16;157569.38;;;19.34;100.00
5350;BME280;2697;42.144;24.794;2023-05-27T04:11:41;157566.75;;;19.33;100.00
5350;BME280;2697;42.144;24.794;2023-05-27T04:14:07;157585.31;;;19.40;100.00
5350;BME280;2697;42.144;24.794;2023-05-27T04:16:32;157572.03;;;19.35;100.00
5350;BME280;2697;42.144;24.794;2023-05-27T04:18:59;157606.53;;;19.48;100.00
5350;BME280;2697;42.144;24.794;2023-05-27T04:21:25;157599.91;;;19.46;100.00
5350;BME280;2697;42.144;24.794;2023-05-27T04:23:51;157647.69;;;19.64;100.00
5350;BME280;2697;42.144;24.794;2023-05-27T04:26:16;157667.53;;;19.72;100.00
5350;BME280;2697;42.144;24.794;2023-05-27T04:28:41;157674.19;;;19.74;100.00
5350;BME280;2697;42.144;24.794;2023-05-27T04:31:10;157720.59;;;19.92;100.00
5350;BME280;2697;42.144;24.794;2023-05-27T04:33:44;157751.09;;;20.04;100.00
5350;BME280;2697;42.144;24.794;2023-05-27T04:36:11;157728.53;;;19.95;100.00
5350;BME280;2697;42.144;24.794;2023-05-27T04:38:36;157699.38;;;19.84;100.00
5350;BME280;2697;42.144;24.794;2023-05-27T04:41:02;157724.56;;;19.93;100.00
5350;BME280;2697;42.144;24.794;2023-05-27T04:43:29;157751.09;;;20.04;100.00
5350;BME280;2697;42.144;24.794;2023-05-27T04:45:55;157960.72;;;20.84;100.00
5350;BME280;2697;42.144;24.794;2023-05-27T04:48:22;158146.59;;;21.55;95.97
5350;BME280;2697;42.144;24.794;2023-05-27T04:50:49;158466.69;;;22.78;85.35
5350;BME280;2697;42.144;24.794;2023-05-27T04:53:18;158574.41;;;23.19;82.77
5350;BME280;2697;42.144;24.794;2023-05-27T04:55:43;158639.50;;;23.44;80.30
5350;BME280;2697;42.144;24.794;2023-05-27T04:58:08;158513.25;;;22.96;83.41
5350;BME280;2697;42.144;24.794;2023-05-27T05:00:34;158592.97;;;23.26;80.11
5350;BME280;2697;42.144;24.794;2023-05-27T05:03:25;158511.94;;;22.95;82.70
5350;BME280;2697;42.144;24.794;2023-05-27T05:06:15;158634.19;;;23.42;82.22
5350;BME280;2697;42.144;24.794;2023-05-27T05:08:40;158694.09;;;23.65;78.86
5350;BME280;2697;42.144;24.794;2023-05-27T05:11:06;158829.69;;;24.17;76.99
5350;BME280;2697;42.144;24.794;2023-05-27T05:13:31;158937.50;;;24.58;76.25
5350;BME280;2697;42.144;24.794;2023-05-27T05:15:57;158869.66;;;24.32;76.23
5350;BME280;2697;42.144;24.794;2023-05-27T05:18:22;158687.41;;;23.63;78.23
5350;BME280;2697;42.144;24.794;2023-05-27T05:20:48;158664.75;;;23.54;79.52
5350;BME280;2697;42.144;24.794;2023-05-27T05:23:13;158819.06;;;24.13;77.10
5350;BME280;2697;42.144;24.794;2023-05-27T05:25:39;158591.66;;;23.26;80.01
5350;BME280;2697;42.144;24.794;2023-05-27T05:28:05;158554.47;;;23.12;80.93
5350;BME280;2697;42.144;24.794;2023-05-27T05:30:30;158432.19;;;22.65;83.04
5350;BME280;2697;42.144;24.794;2023-05-27T05:32:57;158478.69;;;22.83;83.14
5350;BME280;2697;42.144;24.794;2023-05-27T05:35:22;158458.75;;;22.75;83.87
5350;BME280;2697;42.144;24.794;2023-05-27T05:37:47;158464.03;;;22.77;82.66
5350;BME280;2697;42.144;24.794;2023-05-27T05:40:14;158480.00;;;22.83;82.83
5350;BME280;2697;42.144;24.794;2023-05-27T05:42:39;158620.94;;;23.37;80.52
5350;BME280;2697;42.144;24.794;2023-05-27T05:45:05;158638.19;;;23.44;77.96
5350;BME280;2697;42.144;24.794;2023-05-27T05:47:31;158602.31;;;23.30;76.96
5350;BME280;2697;42.144;24.794;2023-05-27T05:49:57;158470.66;;;22.80;78.33
5350;BME280;2697;42.144;24.794;2023-05-27T05:52:22;158461.38;;;22.76;77.50
5350;BME280;2697;42.144;24.794;2023-05-27T05:54:48;158365.75;;;22.39;79.63
5350;BME280;2697;42.144;24.794;2023-05-27T05:57:13;158300.63;;;22.14;80.69
5350;BME280;2697;42.144;24.794;2023-05-27T05:59:38;158372.38;;;22.42;80.77
5350;BME280;2697;42.144;24.794;2023-05-27T06:02:04;158278.06;;;22.06;80.92
5350;BME280;2697;42.144;24.794;2023-05-27T06:04:30;158320.56;;;22.22;80.65
5350;BME280;2697;42.144;24.794;2023-05-27T06:06:55;158232.91;;;21.88;82.37
5350;BME280;2697;42.144;24.794;2023-05-27T06:09:22;158307.31;;;22.17;81.79
5350;BME280;2697;42.144;24.794;2023-05-27T06:11:47;158309.97;;;22.18;81.26
5350;BME280;2697;42.144;24.794;2023-05-27T06:14:13;158323.22;;;22.23;79.60
5350;BME280;2697;42.144;24.794;2023-05-27T06:16:38;158264.75;;;22.01;80.86
5350;BME280;2697;42.144;24.794;2023-05-27T06:19:05;158280.75;;;22.07;80.23
5350;BME280;2697;42.144;24.794;2023-05-27T06:21:31;158303.34;;;22.15;80.56
5350;BME280;2697;42.144;24.794;2023-05-27T06:23:58;158238.22;;;21.90;82.42
5350;BME280;2697;42.144;24.794;2023-05-27T06:26:24;158145.25;;;21.55;86.09
5350;BME280;2697;42.144;24.794;2023-05-27T06:28:49;158084.22;;;21.31;88.99
5350;BME280;2697;42.144;24.794;2023-05-27T06:31:15;158008.47;;;21.02;93.56
5350;BME280;2697;42.144;24.794;2023-05-27T06:33:41;158007.16;;;21.02;93.31
5350;BME280;2697;42.144;24.794;2023-05-27T06:36:07;157976.66;;;20.90;94.86
5350;BME280;2697;42.144;24.794;2023-05-27T06:38:32;158020.44;;;21.07;95.24
5350;BME280;2697;42.144;24.794;2023-05-27T06:40:57;158104.09;;;21.39;94.37
5350;BME280;2697;42.144;24.794;2023-05-27T06:43:23;158121.38;;;21.46;97.14
5350;BME280;2697;42.144;24.794;2023-05-27T06:45:48;158054.94;;;21.20;95.27
5350;BME280;2697;42.144;24.794;2023-05-27T06:48:14;157997.88;;;20.98;97.48
5350;BME280;2697;42.144;24.794;2023-05-27T06:50:39;157975.31;;;20.90;97.48
5350;BME280;2697;42.144;24.794;2023-05-27T06:53:04;157962.06;;;20.85;98.13
5350;BME280;2697;42.144;24.794;2023-05-27T06:55:30;158005.84;;;21.01;97.58
5350;BME280;2697;42.144;24.794;2023-05-27T06:57:55;157996.56;;;20.98;99.28
5350;BME280;2697;42.144;24.794;2023-05-27T07:00:20;157956.72;;;20.83;98.93
5350;BME280;2697;42.144;24.794;2023-05-27T07:02:46;157947.47;;;20.79;100.00
5350;BME280;2697;42.144;24.794;2023-05-27T07:05:11;157984.59;;;20.93;100.00
5350;BME280;2697;42.144;24.794;2023-05-27T07:07:37;158017.78;;;21.06;100.00
5350;BME280;2697;42.144;24.794;2023-05-27T07:10:02;157956.72;;;20.83;100.00
5350;BME280;2697;42.144;24.794;2023-05-27T07:12:27;157914.31;;;20.66;100.00
5350;BME280;2697;42.144;24.794;2023-05-27T07:14:53;157910.28;;;20.65;100.00
5350;BME280;2697;42.144;24.794;2023-05-27T07:17:18;157903.66;;;20.62;100.00
5350;BME280;2697;42.144;24.794;2023-05-27T07:19:44;157915.63;;;20.67;100.00
5350;BME280;2697;42.144;24.794;2023-05-27T07:22:09;157902.34;;;20.62;100.00
5350;BME280;2697;42.144;24.794;2023-05-27T07:24:34;157859.88;;;20.45;100.00
5350;BME280;2697;42.144;24.794;2023-05-27T07:27:00;157915.63;;;20.67;100.00
5350;BME280;2697;42.144;24.794;2023-05-27T07:29:26;157906.31;;;20.63;100.00
5350;BME280;2697;42.144;24.794;2023-05-27T07:31:51;157869.19;;;20.49;100.00
5350;BME280;2697;42.144;24.794;2023-05-27T07:34:17;157715.25;;;19.90;100.00
5350;BME280;2697;42.144;24.794;2023-05-27T07:36:42;157643.66;;;19.62;100.00
5350;BME280;2697;42.144;24.794;2023-05-27T07:39:07;157631.75;;;19.58;100.00
5350;BME280;2697;42.144;24.794;2023-05-27T07:41:33;157668.84;;;19.72;100.00
5350;BME280;2697;42.144;24.794;2023-05-27T07:43:58;157699.38;;;19.84;100.00
5350;BME280;2697;42.144;24.794;2023-05-27T07:46:24;157752.41;;;20.04;100.00
5350;BME280;2697;42.144;24.794;2023-05-27T07:48:49;157822.72;;;20.31;100.00
5350;BME280;2697;42.144;24.794;2023-05-27T07:51:15;157919.59;;;20.68;100.00
5350;BME280;2697;42.144;24.794;2023-05-27T07:53:40;158122.69;;;21.46;100.00
5350;BME280;2697;42.144;24.794;2023-05-27T07:56:06;158264.75;;;22.01;100.00
5350;BME280;2697;42.144;24.794;2023-05-27T07:58:31;158323.22;;;22.23;100.00
5350;BME280;2697;42.144;24.794;2023-05-27T08:00:57;158452.13;;;22.72;100.00
5350;BME280;2697;42.144;24.794;2023-05-27T08:03:22;158498.66;;;22.90;100.00
5350;BME280;2697;42.144;24.794;2023-05-27T08:05:47;158477.34;;;22.82;100.00
5350;BME280;2697;42.144;24.794;2023-05-27T08:08:13;158401.63;;;22.53;100.00
5350;BME280;2697;42.144;24.794;2023-05-27T08:10:38;158343.16;;;22.31;100.00
5350;BME280;2697;42.144;24.794;2023-05-27T08:13:04;158384.34;;;22.46;100.00
5350;BME280;2697;42.144;24.794;2023-05-27T08:15:30;158325.88;;;22.24;100.00
5350;BME280;2697;42.144;24.794;2023-05-27T08:17:55;158351.16;;;22.34;100.00
5350;BME280;2697;42.144;24.794;2023-05-27T08:20:21;158319.25;;;22.22;100.00
5350;BME280;2697;42.144;24.794;2023-05-27T08:22:46;158320.56;;;22.22;100.00
5350;BME280;2697;42.144;24.794;2023-05-27T08:25:12;158444.09;;;22.69;100.00
5350;BME280;2697;42.144;24.794;2023-05-27T08:27:52;158457.41;;;22.74;100.00
5350;BME280;2697;42.144;24.794;2023-05-27T08:30:18;158409.59;;;22.56;100.00
5350;BME280;2697;42.144;24.794;2023-05-27T08:32:44;158454.75;;;22.73;100.00
5350;BME280;2697;42.144;24.794;2023-05-27T08:35:10;158416.22;;;22.59;100.00
5350;BME280;2697;42.144;24.794;2023-05-27T08:37:38;158503.97;;;22.92;100.00
5350;BME280;2697;42.144;24.794;2023-05-27T08:40:07;158464.03;;;22.77;100.00
5350;BME280;2697;42.144;24.794;2023-05-27T08:42:33;158420.19;;;22.60;100.00
5350;BME280;2697;42.144;24.794;2023-05-27T08:44:59;158474.69;;;22.81;100.00
5350;BME280;2697;42.144;24.794;2023-05-27T08:47:27;158437.47;;;22.67;100.00
5350;BME280;2697;42.144;24.794;2023-05-27T08:49:53;158453.44;;;22.73;100.00
5350;BME280;2697;42.144;24.794;2023-05-27T08:52:19;158522.59;;;22.99;100.00
5350;BME280;2697;42.144;24.794;2023-05-27T08:54:48;158541.16;;;23.07;100.00
5350;BME280;2697;42.144;24.794;2023-05-27T08:57:16;158635.53;;;23.43;98.22
5350;BME280;2697;42.144;24.794;2023-05-27T08:59:42;158692.78;;;23.65;94.36
5350;BME280;2697;42.144;24.794;2023-05-27T09:02:12;158764.56;;;23.92;90.96
5350;BME280;2697;42.144;24.794;2023-05-27T09:04:38;158749.94;;;23.86;89.51
5350;BME280;2697;42.144;24.794;2023-05-27T09:07:05;158712.66;;;23.72;88.63
5350;BME280;2697;42.144;24.794;2023-05-27T09:09:30;158922.84;;;24.53;83.88
5350;BME280;2697;42.144;24.794;2023-05-27T09:11:59;158884.25;;;24.38;83.50
5350;BME280;2697;42.144;24.794;2023-05-27T09:14:27;158880.28;;;24.36;84.26
5350;BME280;2697;42.144;24.794;2023-05-27T09:16:53;158854.97;;;24.27;84.87
5350;BME280;2697;42.144;24.794;2023-05-27T09:19:19;158777.84;;;23.97;83.58
5350;BME280;2697;42.144;24.794;2023-05-27T09:21:45;158707.38;;;23.70;86.46
5350;BME280;2697;42.144;24.794;2023-05-27T09:24:11;158586.34;;;23.24;89.74
5350;BME280;2697;42.144;24.794;2023-05-27T09:26:37;158519.88;;;22.98;91.96
5350;BME280;2697;42.144;24.794;2023-05-27T09:29:06;158589.00;;;23.25;90.92
5350;BME280;2697;42.144;24.794;2023-05-27T09:31:41;158485.34;;;22.85;93.69
5350;BME280;2697;42.144;24.794;2023-05-27T09:34:16;158503.97;;;22.92;92.68
5350;BME280;2697;42.144;24.794;2023-05-27T09:39:28;158505.31;;;22.93;94.65
5350;BME280;2697;42.144;24.794;2023-05-27T09:41:55;158492.00;;;22.88;94.87
5350;BME280;2697;42.144;24.794;2023-05-27T09:44:24;158507.97;;;22.94;94.88
5350;BME280;2697;42.144;24.794;2023-05-27T09:46:53;158482.72;;;22.84;99.54
5350;BME280;2697;42.144;24.794;2023-05-27T09:49:20;158529.22;;;23.02;96.26
5350;BME280;2697;42.144;24.794;2023-05-27T09:51:46;158500.00;;;22.91;95.07
5350;BME280;2697;42.144;24.794;2023-05-27T09:54:18;158485.34;;;22.85;94.30
5350;BME280;2697;42.144;24.794;2023-05-27T09:56:49;158527.91;;;23.01;93.58
5350;BME280;2697;42.144;24.794;2023-05-27T09:59:15;158612.94;;;23.34;92.30
5350;BME280;2697;42.144;24.794;2023-05-27T10:01:40;158759.22;;;23.90;85.58
5350;BME280;2697;42.144;24.794;2023-05-27T10:04:06;158791.16;;;24.02;84.89
5350;BME280;2697;42.144;24.794;2023-05-27T10:06:32;158900.25;;;24.44;83.59
5350;BME280;2697;42.144;24.794;2023-05-27T10:08:58;159017.31;;;24.89;79.35
5350;BME280;2697;42.144;24.794;2023-05-27T10:11:24;159082.59;;;25.14;78.11
5350;BME280;2697;42.144;24.794;2023-05-27T10:13:51;159033.28;;;24.95;78.32
5350;BME280;2697;42.144;24.794;2023-05-27T10:16:26;159111.84;;;25.25;75.16
5350;BME280;2697;42.144;24.794;2023-05-27T10:18:57;159033.28;;;24.95;77.40
5350;BME280;2697;42.144;24.794;2023-05-27T10:21:26;159099.84;;;25.20;75.97
5350;BME280;2697;42.144;24.794;2023-05-27T10:26:35;159237.00;;;25.73;72.95
5350;BME280;2697;42.144;24.794;2023-05-27T10:31:33;159348.88;;;26.16;72.53
5350;BME280;2697;42.144;24.794;2023-05-27T10:33:58;159392.78;;;26.32;71.34
5350;BME280;2697;42.144;24.794;2023-05-27T10:36:27;159551.34;;;26.93;69.84
5350;BME280;2697;42.144;24.794;2023-05-27T10:41:39;159499.41;;;26.73;70.27
5350;BME280;2697;42.144;24.794;2023-05-27T10:44:05;159643.34;;;27.28;67.00
5350;BME280;2697;42.144;24.794;2023-05-27T10:46:38;159652.66;;;27.32;62.73
5350;BME280;2697;42.144;24.794;2023-05-27T10:49:22;159926.03;;;28.36;57.91
5350;BME280;2697;42.144;24.794;2023-05-27T10:51:48;159811.34;;;27.92;59.29
5350;BME280;2697;42.144;24.794;2023-05-27T10:54:14;159808.63;;;27.91;60.71
5350;BME280;2697;42.144;24.794;2023-05-27T10:56:50;159676.66;;;27.41;59.57
5350;BME280;2697;42.144;24.794;2023-05-27T10:59:20;159820.66;;;27.96;57.94
5350;BME280;2697;42.144;24.794;2023-05-27T11:01:51;159943.38;;;28.43;55.59
5350;BME280;2697;42.144;24.794;2023-05-27T11:04:17;160003.34;;;28.65;54.98
5350;BME280;2697;42.144;24.794;2023-05-27T11:06:58;160079.47;;;28.94;52.23
5350;BME280;2697;42.144;24.794;2023-05-27T11:09:27;160231.63;;;29.52;50.89
5350;BME280;2697;42.144;24.794;2023-05-27T11:11:56;160462.53;;;30.41;47.07
5350;BME280;2697;42.144;24.794;2023-05-27T11:14:23;160126.13;;;29.12;49.72
5350;BME280;2697;42.144;24.794;2023-05-27T11:16:48;160059.41;;;28.87;48.14
5350;BME280;2697;42.144;24.794;2023-05-27T11:19:23;160179.53;;;29.33;48.00
5350;BME280;2697;42.144;24.794;2023-05-27T11:21:48;160070.09;;;28.91;50.09
5350;BME280;2697;42.144;24.794;2023-05-27T11:24:17;160142.16;;;29.18;49.15
5350;BME280;2697;42.144;24.794;2023-05-27T11:26:44;160179.53;;;29.33;46.85
5350;BME280;2697;42.144;24.794;2023-05-27T11:29:16;159862.00;;;28.11;49.19
5350;BME280;2697;42.144;24.794;2023-05-27T11:31:46;159819.31;;;27.95;51.05
5350;BME280;2697;42.144;24.794;2023-05-27T11:34:13;159915.38;;;28.32;51.21
5350;BME280;2697;42.144;24.794;2023-05-27T11:36:39;159986.06;;;28.59;49.45
5350;BME280;2697;42.144;24.794;2023-05-27T11:39:05;160139.47;;;29.17;47.79
5350;BME280;2697;42.144;24.794;2023-05-27T11:41:32;160260.97;;;29.64;45.73
5350;BME280;2697;42.144;24.794;2023-05-27T11:46:41;160378.47;;;30.08;46.74
5350;BME280;2697;42.144;24.794;2023-05-27T11:49:09;160429.19;;;30.28;44.63
5350;BME280;2697;42.144;24.794;2023-05-27T11:51:40;160012.72;;;28.69;47.73
5350;BME280;2697;42.144;24.794;2023-05-27T11:54:06;159932.66;;;28.38;49.14
5350;BME280;2697;42.144;24.794;2023-05-27T11:56:32;160032.75;;;28.77;48.44
5350;BME280;2697;42.144;24.794;2023-05-27T11:58:58;159960.72;;;28.49;49.93
5350;BME280;2697;42.144;24.794;2023-05-27T12:01:24;160128.84;;;29.13;48.24
5350;BME280;2697;42.144;24.794;2023-05-27T12:03:51;160176.88;;;29.32;47.98
5350;BME280;2697;42.144;24.794;2023-05-27T12:06:16;160318.31;;;29.86;46.25
5350;BME280;2697;42.144;24.794;2023-05-27T12:08:42;160204.88;;;29.42;45.68
5350;BME280;2697;42.144;24.794;2023-05-27T12:11:08;160158.19;;;29.24;46.92
5350;BME280;2697;42.144;24.794;2023-05-27T12:13:33;160545.41;;;30.72;44.00
5350;BME280;2697;42.144;24.794;2023-05-27T12:15:59;160620.19;;;31.01;43.81
5350;BME280;2697;42.144;24.794;2023-05-27T12:18:24;160654.91;;;31.14;43.23
5350;BME280;2697;42.144;24.794;2023-05-27T12:20:50;160658.91;;;31.15;43.32
5350;BME280;2697;42.144;24.794;2023-05-27T12:23:16;160525.38;;;30.64;43.06
5350;BME280;2697;42.144;24.794;2023-05-27T12:25:42;160251.63;;;29.60;44.42
5350;BME280;2697;42.144;24.794;2023-05-27T12:28:08;160107.47;;;29.05;46.93
5350;BME280;2697;42.144;24.794;2023-05-27T12:30:34;160110.16;;;29.06;47.22
5350;BME280;2697;42.144;24.794;2023-05-27T12:33:01;160367.72;;;30.04;45.20
5350;BME280;2697;42.144;24.794;2023-05-27T12:35:26;160120.81;;;29.10;46.34
5350;BME280;2697;42.144;24.794;2023-05-27T12:37:52;160222.25;;;29.49;46.72
5350;BME280;2697;42.144;24.794;2023-05-27T12:40:17;160088.81;;;28.98;47.09
5350;BME280;2697;42.144;24.794;2023-05-27T12:42:43;160172.81;;;29.30;45.63
5350;BME280;2697;42.144;24.794;2023-05-27T12:45:09;159877.97;;;28.18;48.34
5350;BME280;2697;42.144;24.794;2023-05-27T12:47:35;160088.81;;;28.98;46.43
5350;BME280;2697;42.144;24.794;2023-05-27T12:50:01;160086.13;;;28.97;47.02
5350;BME280;2697;42.144;24.794;2023-05-27T12:52:26;160208.88;;;29.44;47.04
5350;BME280;2697;42.144;24.794;2023-05-27T12:54:53;160136.81;;;29.16;47.33
5350;BME280;2697;42.144;24.794;2023-05-27T12:57:19;159952.69;;;28.46;50.17
5350;BME280;2697;42.144;24.794;2023-05-27T12:59:44;160186.19;;;29.35;47.93
5350;BME280;2697;42.144;24.794;2023-05-27T13:02:09;159928.69;;;28.37;50.75
5350;BME280;2697;42.144;24.794;2023-05-27T13:04:35;159958.06;;;28.48;50.62
5350;BME280;2697;42.144;24.794;2023-05-27T13:07:00;160091.47;;;28.99;47.96